Time;durP1;ratioP1;P1;durP2;ratioP2;P2;SDS_P1;SDS_P2;PMS_P1;PMS_P2;Temp;Humidity;BMP_temperature;BMP_pressure;BME280_temperature;BME280_humidity;BME280_pressure;Samples;Min_cycle;Max_cycle;Signal;HPM_P1;HPM_P2
2024/01/08 00:00:17;;;;;;;5.43;4.20;;;22.80;52.80;;;;;;5050407;28;20057;-76
2024/01/08 00:02:43;;;;;;;4.20;3.33;;;22.80;52.80;;;;;;5068154;28;20083;-75
2024/01/08 00:05:09;;;;;;;5.80;3.47;;;22.70;52.80;;;;;;5045108;28;20053;-75
2024/01/08 00:07:35;;;;;;;4.35;3.75;;;22.70;52.80;;;;;;5057135;28;20040;-75
2024/01/08 00:10:01;;;;;;;4.72;3.40;;;22.60;52.60;;;;;;5068154;28;20105;-75
2024/01/08 00:12:27;;;;;;;5.38;3.88;;;22.70;52.70;;;;;;5056596;28;20714;-75
2024/01/08 00:14:53;;;;;;;4.18;3.42;;;22.70;52.70;;;;;;5050690;28;20447;-75
2024/01/08 00:17:20;;;;;;;5.63;3.67;;;22.70;52.60;;;;;;5068222;28;20517;-75
2024/01/08 00:19:46;;;;;;;5.30;4.38;;;22.80;52.50;;;;;;5067756;28;20366;-76
2024/01/08 00:22:12;;;;;;;6.03;4.15;;;22.80;52.40;;;;;;5067266;28;20028;-75
2024/01/08 00:24:38;;;;;;;5.85;4.25;;;22.90;52.50;;;;;;5068430;28;20119;-75
2024/01/08 00:27:04;;;;;;;5.43;3.50;;;22.90;52.40;;;;;;5068658;28;20060;-75
2024/01/08 00:29:30;;;;;;;3.67;3.05;;;22.80;52.20;;;;;;5067500;28;20070;-75
2024/01/08 00:31:56;;;;;;;4.22;3.67;;;22.80;52.20;;;;;;5068468;28;20028;-76
2024/01/08 00:34:23;;;;;;;6.57;4.05;;;22.80;52.20;;;;;;5051210;28;20039;-75
2024/01/08 00:36:49;;;;;;;4.47;3.90;;;22.80;52.20;;;;;;5067897;28;20048;-76
2024/01/08 00:39:15;;;;;;;7.50;4.00;;;23.00;52.20;;;;;;5068023;28;20153;-75
2024/01/08 00:41:41;;;;;;;7.40;4.00;;;22.90;52.20;;;;;;5070320;28;20075;-76
2024/01/08 00:44:07;;;;;;;5.38;3.72;;;22.90;52.20;;;;;;5099009;28;20482;-75
2024/01/08 00:46:33;;;;;;;4.68;3.33;;;23.10;52.20;;;;;;5092975;28;20466;-76
2024/01/08 00:48:59;;;;;;;5.53;3.65;;;23.00;52.10;;;;;;5109960;28;20023;-76
2024/01/08 00:51:25;;;;;;;4.85;4.03;;;23.00;52.10;;;;;;5108911;28;20080;-75
2024/01/08 00:53:52;;;;;;;4.10;3.22;;;23.00;52.20;;;;;;5110397;28;20114;-76
2024/01/08 00:56:18;;;;;;;3.42;3.13;;;23.10;52.30;;;;;;5067518;28;20071;-75
2024/01/08 00:58:45;;;;;;;4.28;3.30;;;23.10;52.20;;;;;;5067444;28;20157;-76
2024/01/08 01:01:13;;;;;;;6.18;4.38;;;23.00;52.10;;;;;;5064989;28;20104;-76
2024/01/08 01:03:40;;;;;;;5.07;3.60;;;23.10;52.20;;;;;;5064090;28;20033;-75
2024/01/08 01:06:06;;;;;;;4.05;3.38;;;23.00;52.20;;;;;;5054231;28;20173;-75
2024/01/08 01:08:32;;;;;;;5.63;3.78;;;23.00;52.20;;;;;;5071440;28;20028;-76
2024/01/08 01:10:58;;;;;;;4.82;3.97;;;23.00;52.20;;;;;;5071132;28;20037;-76
2024/01/08 01:13:24;;;;;;;4.00;3.35;;;23.00;52.20;;;;;;5071075;28;20045;-75
2024/01/08 01:15:50;;;;;;;4.75;3.90;;;23.10;52.20;;;;;;5026406;28;20053;-75
2024/01/08 01:18:16;;;;;;;5.63;3.90;;;23.10;52.20;;;;;;5059403;28;20052;-76
2024/01/08 01:20:42;;;;;;;6.05;3.72;;;23.00;52.20;;;;;;5071636;28;20037;-76
2024/01/08 01:23:09;;;;;;;4.30;3.40;;;23.10;52.20;;;;;;5071381;28;20068;-76
2024/01/08 01:25:35;;;;;;;4.93;3.40;;;23.10;52.20;;;;;;5071102;28;20115;-76
2024/01/08 01:28:01;;;;;;;3.42;3.00;;;23.10;52.10;;;;;;5105728;28;20035;-75
2024/01/08 01:30:27;;;;;;;5.78;3.80;;;23.10;52.20;;;;;;5114742;28;20027;-76
2024/01/08 01:32:53;;;;;;;5.82;3.58;;;23.10;52.00;;;;;;5114122;28;20097;-76
2024/01/08 01:35:19;;;;;;;4.95;3.55;;;23.00;52.00;;;;;;5114700;28;20031;-76
2024/01/08 01:37:45;;;;;;;6.13;3.42;;;23.00;52.00;;;;;;5112928;28;20043;-75
2024/01/08 01:40:12;;;;;;;4.25;2.90;;;23.00;52.00;;;;;;5094943;28;20403;-74
2024/01/08 01:42:38;;;;;;;4.45;3.35;;;23.10;52.00;;;;;;5114054;28;20447;-75
2024/01/08 01:45:04;;;;;;;7.80;3.42;;;23.00;51.90;;;;;;5114347;27;20106;-75
2024/01/08 01:47:32;;;;;;;4.45;3.53;;;23.10;52.00;;;;;;5114219;28;20035;-75
2024/01/08 01:49:58;;;;;;;4.70;3.45;;;23.00;51.80;;;;;;5114014;28;20036;-75
2024/01/08 01:52:25;;;;;;;5.15;3.58;;;23.00;51.80;;;;;;5113714;28;20024;-74
2024/01/08 01:54:52;;;;;;;4.18;3.40;;;23.00;51.90;;;;;;5114022;27;20061;-75
2024/01/08 01:57:18;;;;;;;5.70;3.50;;;22.90;51.90;;;;;;5114385;28;20027;-75
2024/01/08 01:59:45;;;;;;;7.20;3.90;;;23.00;52.00;;;;;;5112368;28;20043;-75
2024/01/08 02:02:14;;;;;;;6.80;3.53;;;22.90;52.00;;;;;;5112111;28;20031;-75
2024/01/08 02:04:42;;;;;;;4.20;3.10;;;22.90;52.00;;;;;;5113839;28;20110;-75
2024/01/08 02:07:09;;;;;;;5.22;3.47;;;22.70;51.80;;;;;;5094694;28;20066;-75
2024/01/08 02:09:36;;;;;;;4.45;3.63;;;22.70;51.80;;;;;;5098234;28;20431;-75
2024/01/08 02:12:02;;;;;;;3.35;2.78;;;22.70;51.70;;;;;;5098508;28;20134;-75
2024/01/08 02:14:28;;;;;;;5.28;3.55;;;22.70;51.70;;;;;;5094465;28;20183;-74
2024/01/08 02:16:54;;;;;;;6.93;3.65;;;22.70;51.80;;;;;;5113000;28;20424;-74
2024/01/08 02:19:20;;;;;;;4.82;3.72;;;22.60;51.80;;;;;;5111519;28;20024;-75
2024/01/08 02:21:46;;;;;;;6.28;3.90;;;22.70;51.70;;;;;;5112052;28;20069;-74
2024/01/08 02:24:13;;;;;;;5.75;3.83;;;22.70;51.70;;;;;;5113474;28;20510;-75
2024/01/08 02:26:39;;;;;;;3.88;3.22;;;22.70;51.70;;;;;;5113844;28;20461;-74
2024/01/08 02:29:05;;;;;;;4.60;3.33;;;22.70;51.60;;;;;;5112399;28;20488;-75
2024/01/08 02:31:31;;;;;;;6.13;4.20;;;22.60;51.40;;;;;;5113085;28;20391;-75
2024/01/08 02:33:57;;;;;;;6.55;4.05;;;22.60;51.40;;;;;;5112856;28;20096;-75
2024/01/08 02:36:23;;;;;;;9.55;3.55;;;22.60;51.30;;;;;;5077420;28;20035;-75
2024/01/08 02:38:50;;;;;;;4.43;3.25;;;22.60;51.30;;;;;;5113301;28;20023;-74
2024/01/08 02:41:16;;;;;;;4.97;3.70;;;22.60;51.20;;;;;;5111571;28;20034;-74
2024/01/08 02:43:42;;;;;;;7.35;4.20;;;22.50;51.10;;;;;;5113136;28;20042;-75
2024/01/08 02:46:08;;;;;;;4.88;3.90;;;22.70;51.20;;;;;;5113015;28;20035;-75
2024/01/08 02:48:34;;;;;;;5.78;3.72;;;22.70;51.10;;;;;;5111420;28;20027;-74
2024/01/08 02:51:00;;;;;;;5.45;3.67;;;22.70;51.20;;;;;;5112656;27;20035;-74
2024/01/08 02:53:26;;;;;;;7.20;3.88;;;22.60;51.10;;;;;;5111193;28;20043;-75
2024/01/08 02:55:52;;;;;;;6.85;3.67;;;22.60;51.00;;;;;;5113719;28;20032;-75
2024/01/08 02:58:18;;;;;;;6.22;3.88;;;22.60;51.10;;;;;;5113163;28;20483;-75
2024/01/08 03:00:45;;;;;;;6.53;4.03;;;22.60;51.00;;;;;;5112680;28;20027;-74
2024/01/08 03:03:11;;;;;;;6.20;4.32;;;22.60;51.10;;;;;;5112014;28;20432;-74
2024/01/08 03:05:37;;;;;;;4.97;3.50;;;22.60;51.10;;;;;;5107905;28;20048;-75
2024/01/08 03:08:03;;;;;;;4.43;3.53;;;22.60;51.00;;;;;;5109523;28;20030;-75
2024/01/08 03:10:29;;;;;;;7.63;4.40;;;22.70;50.90;;;;;;5113167;28;20163;-75
2024/01/08 03:12:56;;;;;;;9.98;4.57;;;22.60;50.90;;;;;;5112663;28;20053;-74
2024/01/08 03:15:25;;;;;;;8.93;3.75;;;22.60;50.90;;;;;;5112415;28;20035;-75
2024/01/08 03:17:52;;;;;;;5.53;3.83;;;22.50;50.90;;;;;;5112578;28;20453;-75
2024/01/08 03:20:22;;;;;;;7.63;4.15;;;22.60;51.00;;;;;;5110649;28;20063;-75
2024/01/08 03:22:49;;;;;;;7.03;4.13;;;22.50;51.00;;;;;;5112405;28;20156;-75
2024/01/08 03:25:15;;;;;;;6.63;4.00;;;22.40;50.90;;;;;;5076544;28;20036;-74
2024/01/08 03:27:41;;;;;;;8.95;4.68;;;22.30;50.90;;;;;;5112567;28;20068;-75
2024/01/08 03:30:08;;;;;;;6.15;3.95;;;22.40;50.90;;;;;;5111901;28;20031;-75
2024/01/08 03:32:34;;;;;;;8.20;4.50;;;22.40;51.00;;;;;;5110887;28;20092;-75
2024/01/08 03:35:00;;;;;;;11.38;5.20;;;22.30;51.00;;;;;;5111024;28;20055;-75
2024/01/08 03:37:26;;;;;;;8.88;4.93;;;22.30;51.10;;;;;;5111734;28;20035;-74
2024/01/08 03:39:52;;;;;;;5.70;3.97;;;22.20;51.00;;;;;;5112274;28;20039;-75
2024/01/08 03:42:18;;;;;;;5.63;4.18;;;22.30;51.10;;;;;;5111862;28;20032;-75
2024/01/08 03:44:44;;;;;;;8.15;4.75;;;22.20;51.10;;;;;;5112183;28;20038;-75
2024/01/08 03:47:11;;;;;;;7.50;4.80;;;22.20;51.10;;;;;;5111927;28;20115;-75
2024/01/08 03:49:37;;;;;;;9.30;5.22;;;22.20;51.10;;;;;;5101982;28;20077;-75
2024/01/08 03:52:03;;;;;;;7.22;4.63;;;22.20;51.00;;;;;;5104237;28;20095;-75
2024/01/08 03:54:29;;;;;;;7.85;4.28;;;22.30;51.10;;;;;;5111275;28;20028;-75
2024/01/08 03:56:55;;;;;;;5.55;4.15;;;22.30;51.10;;;;;;5110542;28;20027;-75
2024/01/08 03:59:21;;;;;;;7.18;4.22;;;22.30;51.10;;;;;;5111681;28;20490;-75
2024/01/08 04:01:50;;;;;;;5.85;4.00;;;22.30;51.10;;;;;;5111023;28;20491;-74
2024/01/08 04:04:17;;;;;;;7.38;4.53;;;22.40;51.00;;;;;;5111490;28;20028;-75
2024/01/08 04:06:43;;;;;;;5.25;3.90;;;22.10;51.00;;;;;;5084076;28;20403;-75
2024/01/08 04:09:11;;;;;;;6.32;4.45;;;22.20;50.90;;;;;;5091497;28;20036;-75
2024/01/08 04:11:37;;;;;;;7.45;4.50;;;22.20;50.90;;;;;;5098358;28;20030;-75
2024/01/08 04:14:03;;;;;;;6.05;4.05;;;22.20;51.00;;;;;;5109785;28;20031;-75
2024/01/08 04:16:29;;;;;;;6.60;4.63;;;22.20;51.00;;;;;;5111497;28;20497;-74
2024/01/08 04:18:55;;;;;;;7.25;4.28;;;22.20;51.00;;;;;;5111705;28;20043;-74
2024/01/08 04:21:21;;;;;;;6.47;3.97;;;22.10;51.10;;;;;;5111108;28;20028;-75
2024/01/08 04:23:47;;;;;;;5.88;4.05;;;22.10;51.20;;;;;;5110805;28;20118;-76
2024/01/08 04:26:18;;;;;;;9.40;4.55;;;22.00;51.10;;;;;;5110919;28;20032;-74
2024/01/08 04:28:45;;;;;;;9.57;4.38;;;22.10;51.10;;;;;;5111475;28;20516;-75
2024/01/08 04:31:18;;;;;;;5.95;4.32;;;22.20;51.20;;;;;;5091330;28;20031;-75
2024/01/08 04:33:44;;;;;;;6.78;4.50;;;22.20;51.20;;;;;;5104188;28;20034;-75
2024/01/08 04:36:12;;;;;;;6.60;4.60;;;22.00;51.10;;;;;;5111596;28;20383;-76
2024/01/08 04:38:39;;;;;;;6.13;4.20;;;22.20;51.20;;;;;;5113124;28;20501;-75
2024/01/08 04:41:05;;;;;;;8.48;4.88;;;22.10;51.10;;;;;;5098367;28;20119;-75
2024/01/08 04:43:31;;;;;;;7.53;4.72;;;22.20;50.90;;;;;;5117477;27;20031;-75
2024/01/08 04:45:57;;;;;;;6.03;4.38;;;22.20;51.00;;;;;;5098634;28;20047;-75
2024/01/08 04:48:24;;;;;;;10.60;5.75;;;22.10;50.90;;;;;;5094746;28;20383;-75
2024/01/08 04:50:50;;;;;;;8.93;4.93;;;22.10;51.00;;;;;;5094752;28;20051;-75
2024/01/08 04:53:16;;;;;;;7.38;4.65;;;22.20;50.90;;;;;;5094264;28;20116;-75
2024/01/08 04:55:42;;;;;;;8.27;4.40;;;22.20;50.90;;;;;;5095126;28;20055;-75
2024/01/08 04:58:08;;;;;;;6.63;4.35;;;22.20;50.90;;;;;;5094866;28;20066;-75
2024/01/08 05:00:35;;;;;;;7.35;4.90;;;22.20;50.90;;;;;;5093527;28;20036;-75
2024/01/08 05:03:01;;;;;;;7.47;4.45;;;22.20;50.90;;;;;;5094261;28;20112;-75
2024/01/08 05:05:27;;;;;;;8.82;5.05;;;22.20;50.90;;;;;;5094135;28;20040;-75
2024/01/08 05:07:53;;;;;;;7.75;4.78;;;22.20;50.80;;;;;;5094847;28;20554;-75
2024/01/08 05:10:19;;;;;;;7.68;3.67;;;22.10;50.90;;;;;;5092267;28;20047;-75
2024/01/08 05:12:45;;;;;;;6.85;4.47;;;22.00;50.80;;;;;;5078208;28;20032;-75
2024/01/08 05:15:11;;;;;;;7.38;4.68;;;22.00;50.90;;;;;;5095008;28;20077;-75
2024/01/08 05:17:37;;;;;;;8.73;4.93;;;22.00;50.80;;;;;;5094868;28;20052;-74
2024/01/08 05:20:04;;;;;;;7.15;5.07;;;22.10;51.00;;;;;;5104428;28;20483;-75
2024/01/08 05:22:30;;;;;;;7.82;4.80;;;22.00;50.90;;;;;;5117279;27;20027;-75
2024/01/08 05:24:56;;;;;;;11.93;6.20;;;22.00;51.00;;;;;;5117603;27;20032;-76
2024/01/08 05:27:22;;;;;;;9.43;6.03;;;22.00;51.10;;;;;;5117260;27;20031;-75
2024/01/08 05:29:50;;;;;;;7.38;4.95;;;22.10;51.20;;;;;;5117372;28;20055;-75
2024/01/08 05:32:16;;;;;;;10.15;5.55;;;22.00;51.10;;;;;;5115443;27;20455;-75
2024/01/08 05:34:42;;;;;;;9.48;5.53;;;22.00;51.20;;;;;;5108046;27;20076;-75
2024/01/08 05:37:08;;;;;;;9.07;5.45;;;21.90;51.20;;;;;;5116028;28;20024;-76
2024/01/08 05:39:35;;;;;;;7.03;5.22;;;21.90;51.40;;;;;;5117571;27;20100;-75
2024/01/08 05:42:01;;;;;;;12.52;6.07;;;22.00;51.30;;;;;;5117062;28;20541;-75
2024/01/08 05:44:27;;;;;;;10.98;6.28;;;21.90;51.30;;;;;;5116283;28;20447;-75
2024/01/08 05:46:53;;;;;;;9.50;6.25;;;22.00;51.40;;;;;;5115909;28;20042;-76
2024/01/08 05:49:19;;;;;;;11.63;6.60;;;22.00;51.40;;;;;;5117397;27;20363;-75
2024/01/08 05:51:45;;;;;;;9.35;5.57;;;22.00;51.30;;;;;;5112160;28;20422;-74
2024/01/08 05:54:11;;;;;;;9.65;5.80;;;22.00;51.40;;;;;;5113607;28;20035;-75
2024/01/08 05:56:38;;;;;;;10.23;5.50;;;22.00;51.30;;;;;;5114261;28;20031;-75
2024/01/08 05:59:04;;;;;;;10.43;5.70;;;21.90;51.30;;;;;;5114411;28;20057;-76
2024/01/08 06:01:30;;;;;;;7.72;5.35;;;22.00;51.30;;;;;;5113922;28;20122;-75
2024/01/08 06:03:56;;;;;;;8.63;5.55;;;21.90;51.50;;;;;;5113688;28;20028;-74
2024/01/08 06:06:22;;;;;;;9.07;5.82;;;21.90;51.60;;;;;;5112623;28;20477;-75
2024/01/08 06:08:48;;;;;;;7.65;5.22;;;21.80;51.50;;;;;;5113570;28;20039;-75
2024/01/08 06:11:14;;;;;;;8.38;5.22;;;21.80;51.70;;;;;;5111487;28;20023;-75
2024/01/08 06:13:40;;;;;;;9.15;5.93;;;21.70;51.70;;;;;;5108581;28;20031;-75
2024/01/08 06:16:07;;;;;;;11.10;6.18;;;21.60;51.80;;;;;;5113727;28;20036;-74
2024/01/08 06:18:33;;;;;;;9.30;5.70;;;21.80;52.00;;;;;;5113616;27;20028;-75
2024/01/08 06:20:59;;;;;;;10.85;5.95;;;21.70;52.20;;;;;;5112309;28;20043;-75
2024/01/08 06:23:25;;;;;;;6.00;4.10;;;21.80;52.20;;;;;;5113521;28;20024;-75
2024/01/08 06:25:51;;;;;;;8.88;5.65;;;21.80;52.20;;;;;;5109372;28;20060;-79
2024/01/08 06:28:17;;;;;;;3.42;2.22;;;21.90;52.30;;;;;;5104129;28;20032;-78
2024/01/08 06:30:44;;;;;;;2.35;2.00;;;21.80;48.90;;;;;;5103888;28;20036;-75
2024/01/08 06:33:10;;;;;;;3.50;2.78;;;21.90;50.80;;;;;;5102320;28;20375;-77
2024/01/08 06:35:36;;;;;;;3.50;2.33;;;22.00;47.30;;;;;;5104217;28;20023;-76
2024/01/08 06:38:02;;;;;;;3.95;2.80;;;22.10;49.80;;;;;;5107292;28;20180;-75
2024/01/08 06:40:28;;;;;;;5.57;4.15;;;22.30;50.10;;;;;;5081198;28;20074;-79
2024/01/08 06:42:54;;;;;;;7.20;6.50;;;22.60;52.40;;;;;;5107499;28;20045;-75
2024/01/08 06:45:21;;;;;;;4.75;4.07;;;22.60;50.10;;;;;;5101947;28;20035;-76
2024/01/08 06:47:47;;;;;;;5.38;3.83;;;22.50;50.80;;;;;;5104207;28;20054;-75
2024/01/08 06:50:13;;;;;;;18.08;7.40;;;22.60;48.10;;;;;;5103843;28;20352;-75
2024/01/08 06:52:39;;;;;;;14.80;7.03;;;22.70;51.30;;;;;;5098056;28;20155;-78
2024/01/08 06:55:06;;;;;;;5.28;2.90;;;23.00;58.00;;;;;;5103625;27;20476;-75
2024/01/08 06:57:32;;;;;;;9.10;6.45;;;23.10;54.90;;;;;;5098270;28;20054;-79
2024/01/08 06:59:58;;;;;;;3.35;2.35;;;23.10;55.20;;;;;;5104547;28;20487;-80
2024/01/08 07:02:24;;;;;;;3.45;2.50;;;23.20;54.40;;;;;;5109094;28;20126;-82
2024/01/08 07:04:52;;;;;;;5.95;3.83;;;23.40;54.30;;;;;;5111570;28;20131;-75
2024/01/08 07:07:18;;;;;;;6.88;3.92;;;23.20;48.50;;;;;;5111270;28;20499;-76
2024/01/08 07:09:44;;;;;;;15.88;6.38;;;23.30;42.80;;;;;;5108863;28;20110;-74
2024/01/08 07:12:10;;;;;;;14.13;6.28;;;23.40;45.80;;;;;;5111475;27;20034;-72
2024/01/08 07:14:46;;;;;;;14.73;6.53;;;23.40;46.40;;;;;;5110252;28;20019;-77
2024/01/08 07:17:12;;;;;;;22.42;7.45;;;23.30;48.00;;;;;;5110405;28;20055;-76
2024/01/08 07:19:38;;;;;;;19.35;8.75;;;23.40;48.30;;;;;;5109315;28;20058;-76
2024/01/08 07:22:04;;;;;;;24.15;9.55;;;23.50;51.20;;;;;;5112747;28;20035;-75
2024/01/08 07:24:30;;;;;;;21.80;7.13;;;23.60;50.40;;;;;;5111692;27;20064;-75
2024/01/08 07:26:59;;;;;;;27.17;9.93;;;23.70;47.60;;;;;;5111044;28;20559;-75
2024/01/08 07:29:25;;;;;;;22.20;10.07;;;23.70;50.60;;;;;;5110866;28;20031;-75
2024/01/08 07:31:51;;;;;;;30.65;12.57;;;23.80;52.60;;;;;;5109572;28;20165;-78
2024/01/08 07:34:19;;;;;;;23.63;11.55;;;23.80;51.90;;;;;;5111004;28;20032;-77
2024/01/08 07:36:45;;;;;;;55.65;22.38;;;23.90;52.10;;;;;;5110542;28;20251;-76
2024/01/08 07:39:18;;;;;;;16.45;6.47;;;24.00;53.60;;;;;;5111203;28;20040;-79
2024/01/08 07:41:45;;;;;;;16.77;6.60;;;24.00;58.40;;;;;;5110503;28;20110;-79
2024/01/08 07:44:11;;;;;;;11.73;6.43;;;24.10;62.10;;;;;;5107807;28;20038;-75
2024/01/08 07:46:37;;;;;;;13.93;6.18;;;24.20;62.20;;;;;;5111281;28;20055;-74
2024/01/08 07:49:04;;;;;;;15.45;5.50;;;24.50;60.10;;;;;;5111049;28;20032;-71
2024/01/08 07:51:30;;;;;;;10.90;4.60;;;24.40;63.50;;;;;;5108226;28;20087;-74
2024/01/08 07:53:56;;;;;;;16.55;7.53;;;24.60;60.50;;;;;;5111404;28;20048;-78
2024/01/08 07:56:25;;;;;;;12.13;6.18;;;24.50;64.20;;;;;;5092050;28;20126;-75
2024/01/08 07:58:53;;;;;;;30.02;8.57;;;24.50;64.10;;;;;;5109948;28;20031;-77
2024/01/08 08:01:19;;;;;;;28.02;8.07;;;24.50;59.70;;;;;;5109767;27;20027;-81
2024/01/08 08:03:45;;;;;;;25.05;9.07;;;24.70;61.30;;;;;;5107028;28;20041;-77
2024/01/08 08:06:11;;;;;;;18.85;7.85;;;24.70;62.30;;;;;;5110328;28;20118;-77
2024/01/08 08:08:37;;;;;;;31.23;8.10;;;24.70;63.40;;;;;;5110096;28;20031;-77
2024/01/08 08:11:05;;;;;;;44.25;11.43;;;24.80;62.10;;;;;;5111106;28;20525;-74
2024/01/08 08:13:31;;;;;;;52.13;13.20;;;24.80;64.40;;;;;;5110864;28;20043;-75
2024/01/08 08:15:58;;;;;;;11.52;8.57;;;24.80;59.60;;;;;;5075586;28;20055;-76
2024/01/08 08:18:24;;;;;;;10.50;6.90;;;24.80;51.40;;;;;;5110333;28;20131;-78
2024/01/08 08:20:51;;;;;;;14.25;8.52;;;24.70;45.70;;;;;;5111233;28;20031;-76
2024/01/08 08:23:17;;;;;;;12.43;8.15;;;24.70;50.80;;;;;;5111345;28;20460;-75
2024/01/08 08:25:43;;;;;;;12.73;8.23;;;24.60;50.30;;;;;;5111374;28;20036;-74
2024/01/08 08:28:09;;;;;;;12.32;7.97;;;24.60;50.40;;;;;;5110861;28;20172;-74
2024/01/08 08:30:35;;;;;;;13.20;7.75;;;24.60;50.00;;;;;;5109815;28;20043;-72
2024/01/08 08:33:01;;;;;;;14.23;9.00;;;24.40;50.00;;;;;;5109297;28;20047;-73
2024/01/08 08:35:28;;;;;;;12.43;8.38;;;24.30;49.80;;;;;;5111215;28;20031;-73
2024/01/08 08:37:57;;;;;;;15.35;9.13;;;24.30;49.70;;;;;;5110717;28;20180;-74
2024/01/08 08:40:23;;;;;;;15.07;8.85;;;24.20;49.80;;;;;;5097006;28;20027;-74
2024/01/08 08:42:49;;;;;;;16.92;9.48;;;24.10;50.00;;;;;;5109917;28;20039;-73
2024/01/08 08:45:19;;;;;;;17.50;9.52;;;24.00;49.90;;;;;;5109913;28;20028;-77
2024/01/08 08:47:45;;;;;;;12.95;8.23;;;23.80;50.20;;;;;;5110207;28;20110;-75
2024/01/08 08:50:12;;;;;;;12.77;9.02;;;23.90;50.30;;;;;;5110123;28;20157;-77
2024/01/08 08:52:39;;;;;;;14.18;8.98;;;23.70;50.50;;;;;;5111024;28;20039;-75
2024/01/08 08:55:05;;;;;;;11.88;7.90;;;23.70;50.70;;;;;;5111218;28;20035;-74
2024/01/08 08:57:31;;;;;;;14.27;9.20;;;23.70;50.40;;;;;;5110497;28;20031;-72
2024/01/08 08:59:57;;;;;;;14.60;8.73;;;23.50;50.30;;;;;;5066934;28;20043;-72
2024/01/08 09:02:23;;;;;;;13.25;8.80;;;23.50;50.30;;;;;;5108701;28;20071;-73
2024/01/08 09:04:50;;;;;;;12.75;8.35;;;23.60;50.50;;;;;;5110178;28;20047;-73
2024/01/08 09:07:16;;;;;;;13.07;8.48;;;23.50;50.60;;;;;;5110215;28;20493;-73
2024/01/08 09:09:42;;;;;;;14.68;9.32;;;23.60;50.70;;;;;;5110557;28;20031;-75
2024/01/08 09:12:08;;;;;;;12.98;7.90;;;23.40;51.30;;;;;;5073933;28;20462;-78
2024/01/08 09:14:34;;;;;;;13.27;8.93;;;23.30;53.40;;;;;;5110541;28;20396;-73
2024/01/08 09:17:02;;;;;;;16.48;9.75;;;23.40;54.50;;;;;;5108723;28;20479;-76
2024/01/08 09:19:28;;;;;;;15.10;8.88;;;23.30;55.70;;;;;;5109904;28;20107;-75
2024/01/08 09:21:54;;;;;;;14.77;8.25;;;23.20;56.20;;;;;;5108547;28;20058;-80
2024/01/08 09:24:20;;;;;;;13.32;9.48;;;23.20;57.60;;;;;;5109762;28;20085;-83
2024/01/08 09:26:46;;;;;;;19.02;7.55;;;23.10;54.30;;;;;;5113338;28;20024;-78
2024/01/08 09:29:12;;;;;;;42.75;13.02;;;23.20;48.20;;;;;;5114894;28;20031;-78
2024/01/08 09:31:39;;;;;;;10.55;7.13;;;23.30;50.10;;;;;;5114246;28;20035;-81
2024/01/08 09:34:08;;;;;;;14.73;6.78;;;23.40;43.00;;;;;;5115075;28;20428;-80
2024/01/08 09:36:34;;;;;;;14.93;7.07;;;23.40;40.30;;;;;;5114699;28;20039;-82
2024/01/08 09:39:00;;;;;;;11.93;6.45;;;23.50;40.60;;;;;;5113245;28;20047;-79
2024/01/08 09:41:26;;;;;;;11.95;6.28;;;23.50;39.50;;;;;;5114845;28;20367;-78
2024/01/08 09:43:54;;;;;;;9.50;5.53;;;23.40;37.90;;;;;;5114596;27;20038;-76
2024/01/08 09:46:27;;;;;;;9.55;6.75;;;23.40;38.00;;;;;;5114355;28;20062;-74
2024/01/08 09:48:56;;;;;;;10.52;5.85;;;23.40;38.40;;;;;;5114049;28;20031;-74
2024/01/08 09:51:23;;;;;;;15.40;9.20;;;23.30;38.10;;;;;;5113959;28;20046;-74
2024/01/08 09:53:52;;;;;;;13.95;9.27;;;23.50;49.40;;;;;;5111481;28;20063;-73
2024/01/08 09:56:22;;;;;;;15.95;8.27;;;23.50;51.00;;;;;;5113187;27;20028;-74
2024/01/08 09:58:48;;;;;;;17.58;8.95;;;23.40;51.10;;;;;;5112730;28;20541;-74
2024/01/08 10:01:15;;;;;;;12.10;7.88;;;23.50;51.30;;;;;;5109537;28;20042;-74
2024/01/08 10:03:42;;;;;;;12.30;9.18;;;23.40;51.40;;;;;;5113463;28;20035;-76
2024/01/08 10:06:09;;;;;;;12.93;8.75;;;23.40;51.50;;;;;;5113910;28;20035;-76
2024/01/08 10:08:36;;;;;;;12.57;8.65;;;23.40;51.50;;;;;;5109938;28;20047;-75
2024/01/08 10:11:04;;;;;;;16.05;9.63;;;23.30;51.90;;;;;;5113531;28;20035;-77
2024/01/08 10:13:30;;;;;;;11.57;7.90;;;23.30;51.90;;;;;;5113534;28;20067;-78
2024/01/08 10:15:57;;;;;;;10.75;8.25;;;23.40;52.00;;;;;;5113120;28;20091;-74
2024/01/08 10:18:24;;;;;;;12.45;8.32;;;23.40;52.10;;;;;;5114010;28;20044;-80
2024/01/08 10:21:11;;;;;;;11.57;8.05;;;23.10;52.00;;;;;;5114733;28;20035;-80
2024/01/08 10:23:38;;;;;;;14.70;8.35;;;23.10;52.20;;;;;;5113439;28;20051;-79
2024/01/08 10:26:04;;;;;;;10.90;7.72;;;23.10;52.40;;;;;;5107836;28;20070;-74
2024/01/08 10:28:37;;;;;;;14.35;8.00;;;23.20;52.30;;;;;;5112202;28;20074;-78
2024/01/08 10:31:08;;;;;;;13.02;7.65;;;23.10;52.20;;;;;;5112372;28;20100;-74
2024/01/08 10:33:35;;;;;;;15.43;7.60;;;23.10;52.10;;;;;;5112364;28;20032;-77
2024/01/08 10:36:04;;;;;;;14.02;8.02;;;23.00;51.90;;;;;;5093037;28;20127;-73
2024/01/08 10:38:33;;;;;;;8.05;4.80;;;23.00;51.80;;;;;;5112473;28;20070;-74
2024/01/08 10:41:01;;;;;;;86.82;14.23;;;23.00;46.40;;;;;;5113311;28;20088;-72
2024/01/08 10:43:31;;;;;;;11.20;6.03;;;23.20;47.20;;;;;;5112159;28;20028;-73
2024/01/08 10:46:04;;;;;;;11.18;6.28;;;23.20;46.90;;;;;;5114196;28;20459;-71
2024/01/08 10:48:43;;;;;;;7.95;5.28;;;23.20;46.30;;;;;;5113483;28;20080;-74
2024/01/08 10:51:09;;;;;;;9.45;4.97;;;23.20;45.80;;;;;;5112771;28;20039;-75
2024/01/08 10:53:46;;;;;;;8.38;5.40;;;23.30;40.30;;;;;;5112896;28;20035;-80
2024/01/08 10:56:15;;;;;;;9.93;6.03;;;23.20;38.50;;;;;;5110773;28;20435;-78
2024/01/08 10:59:03;;;;;;;17.88;6.30;;;23.20;41.80;;;;;;5112355;28;20036;-77
2024/01/08 11:01:29;;;;;;;16.67;6.35;;;23.40;42.90;;;;;;5111209;28;20088;-78
2024/01/08 11:04:00;;;;;;;8.38;6.35;;;23.50;44.80;;;;;;5112388;28;20031;-80
2024/01/08 11:06:28;;;;;;;9.50;6.00;;;23.70;43.30;;;;;;5110152;28;20041;-78
2024/01/08 11:08:58;;;;;;;10.48;5.43;;;23.70;41.50;;;;;;5091091;28;20493;-78
2024/01/08 11:11:25;;;;;;;9.00;5.85;;;23.70;36.90;;;;;;5113206;28;20076;-75
2024/01/08 11:13:51;;;;;;;7.07;5.10;;;23.70;37.90;;;;;;5104475;28;20036;-77
2024/01/08 11:16:43;;;;;;;9.48;6.25;;;23.60;41.60;;;;;;5107434;28;20451;-75
2024/01/08 11:19:18;;;;;;;9.13;6.13;;;23.70;38.70;;;;;;5048339;28;20056;-76
2024/01/08 11:21:48;;;;;;;11.68;6.40;;;23.60;40.10;;;;;;5042223;28;20029;-72
2024/01/08 11:24:15;;;;;;;9.05;5.95;;;23.70;42.20;;;;;;5033624;28;20041;-74
2024/01/08 11:26:45;;;;;;;8.48;6.40;;;23.70;46.40;;;;;;5030544;28;20493;-74
2024/01/08 11:29:12;;;;;;;9.27;5.43;;;23.70;44.30;;;;;;5034966;28;20149;-75
2024/01/08 11:31:50;;;;;;;8.93;6.40;;;23.70;43.60;;;;;;5039004;28;20029;-75
2024/01/08 11:34:35;;;;;;;11.52;5.22;;;23.70;37.70;;;;;;5038679;28;20048;-78
2024/01/08 11:37:39;;;;;;;11.63;7.22;;;23.70;40.40;;;;;;5046542;28;20037;-75
2024/01/08 11:40:17;;;;;;;13.48;7.10;;;23.80;49.80;;;;;;5046923;28;20215;-75
2024/01/08 11:42:50;;;;;;;13.70;8.48;;;23.90;53.40;;;;;;5043483;28;20049;-76
2024/01/08 11:45:19;;;;;;;13.00;8.32;;;23.90;55.90;;;;;;5045761;28;20516;-74
2024/01/08 11:47:45;;;;;;;14.70;9.07;;;23.80;56.20;;;;;;5033904;28;20022;-74
2024/01/08 11:50:12;;;;;;;7.80;5.00;;;23.80;56.50;;;;;;5011927;28;20037;-71
2024/01/08 11:52:39;;;;;;;12.70;7.97;;;23.90;57.00;;;;;;5012533;28;20049;-76
2024/01/08 11:55:09;;;;;;;13.70;7.40;;;23.80;58.10;;;;;;5020462;28;20521;-75
2024/01/08 11:57:36;;;;;;;10.90;6.85;;;23.90;58.80;;;;;;5081709;28;20417;-75
2024/01/08 12:00:18;;;;;;;11.13;7.53;;;23.90;59.30;;;;;;5092033;28;20084;-77
2024/01/08 12:02:46;;;;;;;11.53;7.97;;;23.90;57.90;;;;;;5075615;28;20036;-72
2024/01/08 12:05:13;;;;;;;16.77;8.45;;;24.00;53.50;;;;;;5084912;28;20047;-75
2024/01/08 12:07:39;;;;;;;12.88;7.68;;;24.00;52.80;;;;;;5088276;28;20028;-75
2024/01/08 12:10:08;;;;;;;13.85;7.88;;;23.90;52.50;;;;;;5048376;28;20043;-75
2024/01/08 12:12:39;;;;;;;13.02;7.20;;;23.80;52.30;;;;;;5085163;28;20036;-75
2024/01/08 12:15:07;;;;;;;13.40;7.90;;;23.70;52.00;;;;;;5089009;28;20190;-74
2024/01/08 12:17:33;;;;;;;13.73;8.00;;;23.70;52.00;;;;;;5083871;28;20173;-75
2024/01/08 12:19:59;;;;;;;15.30;7.85;;;23.70;51.90;;;;;;5088768;28;20040;-75
2024/01/08 12:22:26;;;;;;;11.57;8.00;;;23.70;51.90;;;;;;5088725;28;20049;-77
2024/01/08 12:24:55;;;;;;;12.85;8.07;;;23.50;52.00;;;;;;5087717;28;20035;-76
2024/01/08 12:27:22;;;;;;;13.90;6.95;;;23.50;51.90;;;;;;5089308;28;20121;-76
2024/01/08 12:29:49;;;;;;;16.27;8.20;;;23.50;52.00;;;;;;5090731;28;20032;-75
2024/01/08 12:32:21;;;;;;;11.48;7.53;;;23.40;51.90;;;;;;5094406;28;20031;-77
2024/01/08 12:34:47;;;;;;;14.02;7.18;;;23.50;52.10;;;;;;5107080;28;20044;-75
2024/01/08 12:37:15;;;;;;;12.75;7.22;;;23.30;52.00;;;;;;5111238;28;20042;-78
2024/01/08 12:39:42;;;;;;;11.70;7.78;;;23.30;52.00;;;;;;5110968;28;20088;-73
2024/01/08 12:42:14;;;;;;;16.02;9.05;;;23.80;58.20;;;;;;5111029;28;20039;-81